HEZ weather

Tlalnepantla de Baz Heliport
Tlalnepantla de Baz, México (state), Mexico

Public forecast

Using degrees Celsius for public forecast. Weather courtesy of forecast.io.

Closest aviation weather report (METAR) to Tlalnepantla de Baz Heliport

Closest report is Licenciado Benito Juarez International Airport, 9.3 nm (17.3 km) SE. Retrieved 2019/12/09 19:45 UTC (1 hour ago):

MMMX 091945Z 11007KT 7SM SKC 24/M03 A3023 NOSIG RMK HZY

Closest aviation forecast (TAF) to Tlalnepantla de Baz Heliport

Closest forecast is Licenciado Benito Juarez International Airport, 9.3 nm (17.3 km) SE. Retrieved 2019/12/09 18:19 UTC (3 hours ago):

TAF MMMX 091717Z 0918/1024 14005KT 6SM HZ SKC TX25/0922Z TN08/1013Z BECMG 0920/0921 16012KT FM100100 21006KT P6SM SKC BECMG 1005/1006 00000KT FM101200 00000KT 5SM HZ SKC FM101800 14005KT 6SM HZ SKC BECMG 1020/1021 16010KT